Time;durP1;ratioP1;P1;durP2;ratioP2;P2;SDS_P1;SDS_P2;PMS_P1;PMS_P2;Temp;Humidity;BMP_temperature;BMP_pressure;BME280_temperature;BME280_humidity;BME280_pressure;Samples;Min_cycle;Max_cycle;Signal;HPM_P1;HPM_P2
2021/11/07 00:00:44;;;;;;;60.55;42.53;;;;;;;;;;4904640;29;20049;-79
2021/11/07 00:03:55;;;;;;;66.75;43.40;;;;;;;;;;4896510;29;20066;-78
2021/11/07 00:06:30;;;;;;;71.45;44.13;;;;;;;;;;4895247;29;20085;-78
2021/11/07 00:09:05;;;;;;;72.95;46.13;;;;;;;;;;4916101;29;20044;-78
2021/11/07 00:11:43;;;;;;;77.55;50.10;;;;;;;;;;4850287;29;20029;-78
2021/11/07 00:14:17;;;;;;;88.57;52.55;;;;;;;;;;4862415;29;20033;-79
2021/11/07 00:17:14;;;;;;;67.22;45.25;;;;;;;;;;4830630;29;20022;-79
2021/11/07 00:19:51;;;;;;;107.03;58.05;;;;;;;;;;4843805;29;20093;-78
2021/11/07 00:27:51;;;;;;;98.63;58.00;;;;;;;;;;4841433;29;20142;-78
2021/11/07 00:30:55;;;;;;;90.68;56.72;;;;;;;;;;4848639;29;20034;-79
2021/11/07 00:36:42;;;;;;;80.53;50.03;;;;;;;;;;4858570;29;20017;-79
2021/11/07 00:39:46;;;;;;;62.55;42.88;;;;;;;;;;4863057;29;20026;-79
2021/11/07 00:48:33;;;;;;;70.45;46.22;;;;;;;;;;4872359;29;20048;-79
2021/11/07 00:54:03;;;;;;;86.90;53.83;;;;;;;;;;4861491;29;20038;-78
2021/11/07 00:59:31;;;;;;;78.40;51.20;;;;;;;;;;4867022;29;20026;-78
2021/11/07 01:02:05;;;;;;;70.70;48.67;;;;;;;;;;4856082;29;20073;-79
2021/11/07 01:04:31;;;;;;;91.07;56.00;;;;;;;;;;4841540;29;20065;-78
2021/11/07 01:07:00;;;;;;;70.50;49.45;;;;;;;;;;4851381;29;20045;-78
2021/11/07 01:09:29;;;;;;;86.53;53.35;;;;;;;;;;4869366;29;20089;-78
2021/11/07 01:11:56;;;;;;;91.68;54.05;;;;;;;;;;4905780;29;20048;-78
2021/11/07 01:14:22;;;;;;;105.93;57.92;;;;;;;;;;4939112;29;20051;-79
2021/11/07 01:16:48;;;;;;;108.28;54.47;;;;;;;;;;4960387;29;20075;-79
2021/11/07 01:19:18;;;;;;;87.07;48.85;;;;;;;;;;4958308;28;20032;-78
2021/11/07 01:22:17;;;;;;;95.60;50.38;;;;;;;;;;4967147;29;20074;-78
2021/11/07 01:24:57;;;;;;;101.75;50.92;;;;;;;;;;4917151;29;20084;-80
2021/11/07 01:27:30;;;;;;;89.72;46.50;;;;;;;;;;4904142;29;20040;-78
2021/11/07 01:29:59;;;;;;;92.80;48.58;;;;;;;;;;4904599;29;20044;-79
2021/11/07 01:32:25;;;;;;;99.63;49.60;;;;;;;;;;4916414;29;20028;-78
2021/11/07 01:36:02;;;;;;;84.78;45.25;;;;;;;;;;4917337;29;20045;-78
2021/11/07 01:40:48;;;;;;;72.80;40.83;;;;;;;;;;4920302;29;20024;-78
2021/11/07 01:43:23;;;;;;;63.95;37.15;;;;;;;;;;4921019;29;20055;-79
2021/11/07 01:46:01;;;;;;;61.50;36.53;;;;;;;;;;4903188;29;20032;-79
2021/11/07 01:48:28;;;;;;;74.20;40.67;;;;;;;;;;4901410;29;20454;-79
2021/11/07 01:50:58;;;;;;;68.30;39.30;;;;;;;;;;4916518;29;20096;-78
2021/11/07 01:55:56;;;;;;;78.03;43.03;;;;;;;;;;4918864;29;20020;-79
2021/11/07 01:58:24;;;;;;;70.30;39.90;;;;;;;;;;4919737;29;20084;-79
2021/11/07 02:00:52;;;;;;;79.90;44.70;;;;;;;;;;4903106;29;20031;-79
2021/11/07 02:03:19;;;;;;;75.95;42.42;;;;;;;;;;4903971;29;20041;-78
2021/11/07 02:05:45;;;;;;;71.60;39.63;;;;;;;;;;4887598;29;20040;-77
2021/11/07 02:08:14;;;;;;;65.57;39.88;;;;;;;;;;4915879;29;20029;-78
2021/11/07 02:10:42;;;;;;;74.00;42.08;;;;;;;;;;4918875;29;20024;-78
2021/11/07 02:13:08;;;;;;;70.63;40.50;;;;;;;;;;4914248;29;20032;-79
2021/11/07 02:15:36;;;;;;;68.80;40.63;;;;;;;;;;4968027;29;20065;-79
2021/11/07 02:18:04;;;;;;;70.78;40.47;;;;;;;;;;4944742;29;20031;-78
2021/11/07 02:20:32;;;;;;;83.10;45.20;;;;;;;;;;4980985;28;20015;-79
2021/11/07 02:23:00;;;;;;;80.32;43.60;;;;;;;;;;4963091;28;20035;-79
2021/11/07 02:25:26;;;;;;;76.75;43.30;;;;;;;;;;4962885;29;20011;-78
2021/11/07 02:27:53;;;;;;;75.80;41.45;;;;;;;;;;4960632;29;20082;-79
2021/11/07 02:30:46;;;;;;;81.13;45.45;;;;;;;;;;4977990;28;20042;-78
2021/11/07 02:33:18;;;;;;;76.75;42.97;;;;;;;;;;4936680;29;20029;-79
2021/11/07 02:35:53;;;;;;;82.15;44.50;;;;;;;;;;4935686;29;20036;-80
2021/11/07 02:38:25;;;;;;;71.70;41.92;;;;;;;;;;4940176;29;20078;-79
2021/11/07 02:40:52;;;;;;;72.70;41.90;;;;;;;;;;4927306;29;20036;-79
2021/11/07 02:43:18;;;;;;;83.85;44.30;;;;;;;;;;4924238;29;20008;-79
2021/11/07 02:45:55;;;;;;;98.93;47.55;;;;;;;;;;4938749;29;20047;-79
2021/11/07 02:48:22;;;;;;;91.13;46.05;;;;;;;;;;4923810;29;20054;-78
2021/11/07 02:50:48;;;;;;;102.60;48.25;;;;;;;;;;4933031;29;20048;-79
2021/11/07 02:53:17;;;;;;;95.53;47.47;;;;;;;;;;4940316;29;20039;-78
2021/11/07 02:55:45;;;;;;;78.03;43.22;;;;;;;;;;4921543;29;20009;-78
2021/11/07 02:58:11;;;;;;;87.38;45.65;;;;;;;;;;4940596;29;20047;-79
2021/11/07 03:00:37;;;;;;;86.75;44.85;;;;;;;;;;4923119;29;20024;-78
2021/11/07 03:03:04;;;;;;;79.43;43.22;;;;;;;;;;4939171;29;20012;-78
2021/11/07 03:05:32;;;;;;;85.38;43.60;;;;;;;;;;4936300;29;20099;-79
2021/11/07 03:07:59;;;;;;;77.32;40.08;;;;;;;;;;4939768;29;20063;-78
2021/11/07 03:10:29;;;;;;;97.68;43.45;;;;;;;;;;4938599;29;20131;-79
2021/11/07 03:13:07;;;;;;;71.32;39.75;;;;;;;;;;4920932;29;20031;-78
2021/11/07 03:15:34;;;;;;;62.70;34.95;;;;;;;;;;4937164;29;20035;-78
2021/11/07 03:18:00;;;;;;;62.50;33.40;;;;;;;;;;4921802;29;20016;-78
2021/11/07 03:20:28;;;;;;;59.65;34.17;;;;;;;;;;4932517;29;20052;-77
2021/11/07 03:22:56;;;;;;;63.20;36.30;;;;;;;;;;4915130;29;20043;-79
2021/11/07 03:25:26;;;;;;;72.68;35.00;;;;;;;;;;4932681;29;20012;-79
2021/11/07 03:27:52;;;;;;;73.82;40.63;;;;;;;;;;4917222;29;20012;-78
2021/11/07 03:33:15;;;;;;;93.00;45.80;;;;;;;;;;4959612;28;20039;-79
2021/11/07 03:35:46;;;;;;;100.95;47.53;;;;;;;;;;4966370;29;20019;-78
2021/11/07 03:38:12;;;;;;;93.60;43.90;;;;;;;;;;4968132;28;20054;-77
2021/11/07 03:40:38;;;;;;;85.07;43.67;;;;;;;;;;4961548;29;20019;-77
2021/11/07 03:43:04;;;;;;;83.15;43.53;;;;;;;;;;4976412;29;20031;-78
2021/11/07 03:45:30;;;;;;;88.40;43.45;;;;;;;;;;4958885;29;20043;-78
2021/11/07 03:48:02;;;;;;;72.40;40.58;;;;;;;;;;4978192;28;20028;-78
2021/11/07 03:50:29;;;;;;;77.80;41.55;;;;;;;;;;4977194;29;20046;-78
2021/11/07 03:52:56;;;;;;;77.75;41.85;;;;;;;;;;4959750;29;20047;-79
2021/11/07 03:55:22;;;;;;;81.72;40.38;;;;;;;;;;4959560;29;20039;-80
2021/11/07 03:57:48;;;;;;;87.70;45.20;;;;;;;;;;4955877;29;20027;-78
2021/11/07 04:00:16;;;;;;;73.30;39.95;;;;;;;;;;4972512;28;20027;-79
2021/11/07 04:02:44;;;;;;;80.43;42.15;;;;;;;;;;4958097;29;20030;-77
2021/11/07 04:05:30;;;;;;;84.78;41.75;;;;;;;;;;4954209;29;20020;-78
2021/11/07 04:08:22;;;;;;;84.07;42.00;;;;;;;;;;4973341;29;20031;-78
2021/11/07 04:11:00;;;;;;;71.97;38.40;;;;;;;;;;4984858;28;20162;-78
2021/11/07 04:13:26;;;;;;;65.63;36.28;;;;;;;;;;4946988;28;20054;-78
2021/11/07 04:15:59;;;;;;;67.60;37.53;;;;;;;;;;4975690;28;20027;-78
2021/11/07 04:18:29;;;;;;;64.95;36.33;;;;;;;;;;4969675;29;20061;-78
2021/11/07 04:20:56;;;;;;;61.35;34.33;;;;;;;;;;4969417;28;20041;-78
2021/11/07 04:23:22;;;;;;;60.22;34.70;;;;;;;;;;4954714;29;20034;-78
2021/11/07 04:25:48;;;;;;;61.35;35.72;;;;;;;;;;4955127;29;20102;-77
2021/11/07 04:28:14;;;;;;;67.32;35.88;;;;;;;;;;4973015;28;20083;-78
2021/11/07 04:30:41;;;;;;;65.60;35.35;;;;;;;;;;4970395;28;20055;-80
2021/11/07 04:33:07;;;;;;;55.38;33.85;;;;;;;;;;4969729;29;20042;-77
2021/11/07 04:35:33;;;;;;;66.53;35.17;;;;;;;;;;4970240;29;20015;-78
2021/11/07 04:38:00;;;;;;;60.03;34.22;;;;;;;;;;4969805;29;20078;-77
2021/11/07 04:40:27;;;;;;;51.83;32.95;;;;;;;;;;4956835;29;20027;-77
2021/11/07 04:42:54;;;;;;;63.38;36.00;;;;;;;;;;4957409;29;20043;-78
2021/11/07 04:45:26;;;;;;;59.97;35.13;;;;;;;;;;4962195;28;20070;-77
2021/11/07 04:47:55;;;;;;;49.75;32.00;;;;;;;;;;4978025;28;20532;-78
2021/11/07 04:50:23;;;;;;;66.97;36.75;;;;;;;;;;4968346;29;20082;-78
2021/11/07 04:52:50;;;;;;;59.22;34.30;;;;;;;;;;4954315;29;20212;-78
2021/11/07 04:55:21;;;;;;;50.95;32.65;;;;;;;;;;4967239;29;20036;-79
2021/11/07 04:57:47;;;;;;;51.72;32.97;;;;;;;;;;4942326;29;20062;-79
2021/11/07 05:00:19;;;;;;;55.92;33.17;;;;;;;;;;4974301;29;20035;-78
2021/11/07 05:02:45;;;;;;;52.63;32.05;;;;;;;;;;4957139;29;20058;-79
2021/11/07 05:05:14;;;;;;;45.83;30.05;;;;;;;;;;4957709;29;20035;-78
2021/11/07 05:07:40;;;;;;;54.42;32.67;;;;;;;;;;4974013;29;20028;-79
2021/11/07 05:10:19;;;;;;;72.07;38.03;;;;;;;;;;4957101;29;20123;-78
2021/11/07 05:12:49;;;;;;;74.47;42.33;;;;;;;;;;4959190;29;20082;-80
2021/11/07 05:15:16;;;;;;;76.88;42.47;;;;;;;;;;4960152;29;20138;-78
2021/11/07 05:17:42;;;;;;;75.28;39.67;;;;;;;;;;4957842;29;20048;-80
2021/11/07 05:20:09;;;;;;;80.95;41.58;;;;;;;;;;4957795;29;20027;-78
2021/11/07 05:22:37;;;;;;;75.05;42.10;;;;;;;;;;4976726;29;20039;-78
2021/11/07 05:25:04;;;;;;;83.63;43.00;;;;;;;;;;4965767;28;20058;-78
2021/11/07 05:27:33;;;;;;;75.50;42.33;;;;;;;;;;4960170;29;20034;-79
2021/11/07 05:29:59;;;;;;;87.07;44.90;;;;;;;;;;4958143;29;20055;-78
2021/11/07 05:32:25;;;;;;;105.97;47.03;;;;;;;;;;4960389;29;20051;-77
2021/11/07 05:34:51;;;;;;;81.70;41.00;;;;;;;;;;4963768;28;20110;-78
2021/11/07 05:37:17;;;;;;;82.65;43.42;;;;;;;;;;4976207;28;20008;-78
2021/11/07 05:39:43;;;;;;;89.47;42.53;;;;;;;;;;4971608;28;20046;-79
2021/11/07 05:42:16;;;;;;;119.53;48.63;;;;;;;;;;4959200;29;20015;-80
2021/11/07 05:44:42;;;;;;;122.35;50.47;;;;;;;;;;4963863;29;20007;-80
2021/11/07 05:47:08;;;;;;;175.32;55.38;;;;;;;;;;4982733;28;20035;-78
2021/11/07 05:49:34;;;;;;;118.82;46.75;;;;;;;;;;4972653;29;20035;-77
2021/11/07 05:52:00;;;;;;;162.95;52.10;;;;;;;;;;4977205;28;20103;-78
2021/11/07 05:54:31;;;;;;;115.63;48.42;;;;;;;;;;4982957;28;20031;-78
2021/11/07 05:57:00;;;;;;;302.67;55.75;;;;;;;;;;4967411;29;20110;-78
2021/11/07 05:59:29;;;;;;;592.17;66.50;;;;;;;;;;4956165;29;20421;-78
2021/11/07 06:02:00;;;;;;;635.17;75.20;;;;;;;;;;4951764;29;20061;-78
2021/11/07 06:04:26;;;;;;;438.50;66.00;;;;;;;;;;4969700;29;20175;-77
2021/11/07 06:06:53;;;;;;;364.60;66.10;;;;;;;;;;4975121;29;20027;-79
2021/11/07 06:09:19;;;;;;;854.38;92.10;;;;;;;;;;4948410;29;20022;-79
2021/11/07 06:11:48;;;;;;;413.58;74.35;;;;;;;;;;4961312;28;20070;-79
2021/11/07 06:14:20;;;;;;;321.17;77.85;;;;;;;;;;4979221;28;20043;-78
2021/11/07 06:17:02;;;;;;;421.38;86.55;;;;;;;;;;4947133;29;20127;-78
2021/11/07 06:19:28;;;;;;;627.95;92.72;;;;;;;;;;4963430;28;20011;-79
2021/11/07 06:21:55;;;;;;;530.88;102.22;;;;;;;;;;4959227;29;20033;-78
2021/11/07 06:27:13;;;;;;;241.68;84.30;;;;;;;;;;4979910;28;20042;-80
2021/11/07 06:30:01;;;;;;;213.23;83.47;;;;;;;;;;4978503;28;20058;-78
2021/11/07 06:32:31;;;;;;;348.75;82.35;;;;;;;;;;4961752;29;20015;-79
2021/11/07 06:35:23;;;;;;;156.82;77.95;;;;;;;;;;4973032;29;20058;-78
2021/11/07 06:37:50;;;;;;;165.55;77.25;;;;;;;;;;4977428;28;20019;-79
2021/11/07 06:40:17;;;;;;;142.23;71.45;;;;;;;;;;4976599;28;20050;-79
2021/11/07 06:42:43;;;;;;;104.32;61.40;;;;;;;;;;4995566;28;20062;-78
2021/11/07 06:45:11;;;;;;;110.40;65.80;;;;;;;;;;4979176;28;20033;-79
2021/11/07 06:48:09;;;;;;;106.95;60.78;;;;;;;;;;4968679;29;20028;-79
2021/11/07 06:50:39;;;;;;;102.93;60.00;;;;;;;;;;4960203;29;20065;-79
2021/11/07 06:53:23;;;;;;;106.28;61.17;;;;;;;;;;4974574;28;20051;-79
2021/11/07 06:56:13;;;;;;;85.50;55.65;;;;;;;;;;4966215;28;20039;-78
2021/11/07 06:58:57;;;;;;;81.03;53.05;;;;;;;;;;4975137;28;20036;-79
2021/11/07 07:01:23;;;;;;;84.57;55.00;;;;;;;;;;4958326;29;20519;-79
2021/11/07 07:03:49;;;;;;;86.22;55.85;;;;;;;;;;4972850;29;20038;-79
2021/11/07 07:06:44;;;;;;;82.93;55.08;;;;;;;;;;4955002;28;20039;-79
2021/11/07 07:09:28;;;;;;;95.70;58.00;;;;;;;;;;4981205;28;20054;-79
2021/11/07 07:12:12;;;;;;;100.18;59.10;;;;;;;;;;4975682;29;20062;-78
2021/11/07 07:14:53;;;;;;;81.93;52.10;;;;;;;;;;4948474;29;20016;-79
2021/11/07 07:17:32;;;;;;;76.72;51.30;;;;;;;;;;4969820;28;20033;-80
2021/11/07 07:30:33;;;;;;;74.90;51.03;;;;;;;;;;4973246;28;20094;-79
2021/11/07 07:33:16;;;;;;;85.38;54.53;;;;;;;;;;4955604;29;20114;-78
2021/11/07 07:35:42;;;;;;;83.90;53.65;;;;;;;;;;4933234;29;20560;-77
2021/11/07 07:38:08;;;;;;;74.93;49.83;;;;;;;;;;4945568;29;20031;-78
2021/11/07 07:40:36;;;;;;;70.55;46.92;;;;;;;;;;4950902;29;20237;-78
2021/11/07 07:43:02;;;;;;;71.30;47.85;;;;;;;;;;4962161;29;20067;-78
2021/11/07 07:45:30;;;;;;;68.50;46.17;;;;;;;;;;4967221;29;20023;-77
2021/11/07 07:48:00;;;;;;;71.43;48.55;;;;;;;;;;4966417;29;20019;-78
2021/11/07 07:50:38;;;;;;;65.35;44.90;;;;;;;;;;4949904;29;20135;-79
2021/11/07 07:53:26;;;;;;;71.30;44.45;;;;;;;;;;4965774;29;20485;-77
2021/11/07 07:55:57;;;;;;;62.80;42.15;;;;;;;;;;4959749;28;20035;-78
2021/11/07 07:58:23;;;;;;;71.65;42.45;;;;;;;;;;4967287;29;20030;-76
2021/11/07 08:00:50;;;;;;;73.43;44.65;;;;;;;;;;4958126;28;20042;-78
2021/11/07 08:03:16;;;;;;;69.57;44.40;;;;;;;;;;4961621;28;20079;-77
2021/11/07 08:05:42;;;;;;;87.15;54.90;;;;;;;;;;4964884;28;20078;-75
2021/11/07 08:08:08;;;;;;;78.38;46.78;;;;;;;;;;4963860;29;20027;-77
2021/11/07 08:10:38;;;;;;;69.38;45.00;;;;;;;;;;4971201;28;20489;-78
2021/11/07 08:13:28;;;;;;;82.43;54.67;;;;;;;;;;4911804;29;20218;-76
2021/11/07 08:15:55;;;;;;;75.78;48.17;;;;;;;;;;4913488;29;20048;-77
2021/11/07 08:18:21;;;;;;;79.65;51.58;;;;;;;;;;4919096;29;20142;-76
2021/11/07 08:20:48;;;;;;;78.03;52.70;;;;;;;;;;4911496;29;20016;-75
2021/11/07 08:23:20;;;;;;;75.05;47.35;;;;;;;;;;4918719;29;20044;-79
2021/11/07 08:25:47;;;;;;;68.63;47.00;;;;;;;;;;4895421;29;20028;-76
2021/11/07 08:28:15;;;;;;;86.18;55.30;;;;;;;;;;4915793;29;20025;-79
2021/11/07 08:30:42;;;;;;;110.65;76.72;;;;;;;;;;4901228;29;20047;-76
2021/11/07 08:33:09;;;;;;;88.28;57.55;;;;;;;;;;4926250;29;20080;-76
2021/11/07 08:35:39;;;;;;;76.82;50.05;;;;;;;;;;4907587;29;20035;-75
2021/11/07 08:38:10;;;;;;;78.40;49.78;;;;;;;;;;4918667;29;20060;-75
2021/11/07 09:05:12;;;;;;;93.78;54.38;;;;;;;;;;4989233;28;20066;-76
2021/11/07 09:10:22;;;;;;;90.88;53.47;;;;;;;;;;4993985;28;20392;-76
2021/11/07 09:12:51;;;;;;;91.53;55.90;;;;;;;;;;4977622;28;20069;-77
2021/11/07 09:15:18;;;;;;;95.72;54.70;;;;;;;;;;4987724;28;20023;-77
2021/11/07 09:17:46;;;;;;;89.63;51.78;;;;;;;;;;4993531;28;20027;-77
2021/11/07 09:20:20;;;;;;;86.38;50.53;;;;;;;;;;4994055;28;20488;-79
2021/11/07 09:22:50;;;;;;;85.22;51.88;;;;;;;;;;4998919;28;20051;-76
2021/11/07 09:25:26;;;;;;;87.80;50.25;;;;;;;;;;4981588;28;20022;-78
2021/11/07 09:28:00;;;;;;;82.88;49.33;;;;;;;;;;4998760;28;20011;-77
2021/11/07 09:30:42;;;;;;;86.32;50.90;;;;;;;;;;4981437;28;20070;-79
2021/11/07 09:33:14;;;;;;;102.85;52.95;;;;;;;;;;4997248;28;20491;-76
2021/11/07 09:38:22;;;;;;;91.32;52.50;;;;;;;;;;4999306;28;20033;-77
2021/11/07 09:41:06;;;;;;;88.03;51.20;;;;;;;;;;4996511;28;20076;-77
2021/11/07 09:46:19;;;;;;;85.22;52.22;;;;;;;;;;4993923;28;20038;-76
2021/11/07 09:48:52;;;;;;;94.82;55.45;;;;;;;;;;4989516;28;20030;-76
2021/11/07 09:51:20;;;;;;;77.18;46.63;;;;;;;;;;4994770;28;20027;-77
2021/11/07 09:53:53;;;;;;;137.57;84.35;;;;;;;;;;4995763;28;20043;-78
2021/11/07 09:56:20;;;;;;;87.25;54.58;;;;;;;;;;4990602;28;20015;-76
2021/11/07 09:58:50;;;;;;;80.95;47.95;;;;;;;;;;4981812;28;20039;-77
2021/11/07 10:01:16;;;;;;;80.50;47.63;;;;;;;;;;4993347;28;20042;-77
2021/11/07 10:03:44;;;;;;;87.13;51.35;;;;;;;;;;4992514;28;20081;-76
2021/11/07 10:06:52;;;;;;;80.85;47.20;;;;;;;;;;4972278;28;20495;-77
2021/11/07 10:09:30;;;;;;;74.93;45.10;;;;;;;;;;4949507;29;20047;-76
2021/11/07 10:12:03;;;;;;;73.28;42.75;;;;;;;;;;4943682;29;20148;-77
2021/11/07 10:14:38;;;;;;;108.15;64.80;;;;;;;;;;4942685;29;20031;-77
2021/11/07 10:17:20;;;;;;;138.85;82.93;;;;;;;;;;4946281;28;20040;-77
2021/11/07 10:19:56;;;;;;;132.52;74.82;;;;;;;;;;4931859;29;20040;-79
2021/11/07 10:22:23;;;;;;;92.63;52.47;;;;;;;;;;4953945;29;20020;-76
2021/11/07 10:24:56;;;;;;;89.20;50.60;;;;;;;;;;4950931;29;20055;-78
2021/11/07 10:27:22;;;;;;;90.65;50.25;;;;;;;;;;4935501;29;20117;-77
2021/11/07 10:29:53;;;;;;;87.90;50.00;;;;;;;;;;4953415;29;20560;-77
2021/11/07 10:32:36;;;;;;;85.00;47.85;;;;;;;;;;4935521;29;20074;-77
2021/11/07 10:39:08;;;;;;;77.97;44.47;;;;;;;;;;4956962;29;20134;-79
2021/11/07 10:41:27;;;;;;;82.53;46.15;;;;;;;;;;4957125;29;20102;-80
2021/11/07 10:44:37;;;;;;;73.22;41.05;;;;;;;;;;4969292;28;20045;-78
2021/11/07 10:47:17;;;;;;;73.47;41.15;;;;;;;;;;4991026;28;20528;-80
2021/11/07 10:52:39;;;;;;;78.65;45.63;;;;;;;;;;4991434;28;20045;-77
2021/11/07 10:55:22;;;;;;;83.82;48.40;;;;;;;;;;4996635;28;20030;-77
2021/11/07 10:57:50;;;;;;;77.13;46.00;;;;;;;;;;4976124;28;20035;-78
2021/11/07 11:00:25;;;;;;;79.32;45.53;;;;;;;;;;4986025;28;20030;-79
2021/11/07 11:02:57;;;;;;;80.45;46.97;;;;;;;;;;4978412;28;20072;-76
2021/11/07 11:06:00;;;;;;;83.78;46.00;;;;;;;;;;4998005;28;20396;-77
2021/11/07 11:08:38;;;;;;;90.40;52.10;;;;;;;;;;4998180;28;20026;-76
2021/11/07 11:13:49;;;;;;;93.25;51.58;;;;;;;;;;4995960;28;20014;-78
2021/11/07 11:29:20;;;;;;;86.45;47.15;;;;;;;;;;4997435;28;20037;-78
2021/11/07 11:34:32;;;;;;;91.05;51.35;;;;;;;;;;4977437;28;20074;-76
2021/11/07 11:37:15;;;;;;;90.78;49.53;;;;;;;;;;4990503;28;20011;-76
2021/11/07 11:39:48;;;;;;;107.68;60.25;;;;;;;;;;4985776;28;20002;-76
2021/11/07 11:42:31;;;;;;;102.88;60.60;;;;;;;;;;4991901;28;20074;-77
2021/11/07 11:44:58;;;;;;;109.45;58.85;;;;;;;;;;4967932;28;20389;-77
2021/11/07 11:55:36;;;;;;;94.32;52.97;;;;;;;;;;4993884;28;20094;-77
2021/11/07 11:58:27;;;;;;;81.82;46.58;;;;;;;;;;4986801;28;20023;-78
2021/11/07 12:00:59;;;;;;;83.47;46.33;;;;;;;;;;4982768;28;20022;-80
2021/11/07 12:06:56;;;;;;;94.47;51.53;;;;;;;;;;4967778;28;20019;-76
2021/11/07 12:09:55;;;;;;;117.97;62.33;;;;;;;;;;4986386;28;20053;-79
2021/11/07 12:12:30;;;;;;;96.43;52.33;;;;;;;;;;4989891;28;20039;-78
2021/11/07 12:15:12;;;;;;;100.20;54.05;;;;;;;;;;4971915;28;20055;-76
2021/11/07 12:17:39;;;;;;;98.57;51.05;;;;;;;;;;4969570;28;20026;-76
2021/11/07 12:20:24;;;;;;;88.32;49.42;;;;;;;;;;4988059;28;20026;-79
2021/11/07 12:22:51;;;;;;;101.00;53.00;;;;;;;;;;4974189;28;20031;-77
2021/11/07 12:25:17;;;;;;;97.57;55.20;;;;;;;;;;4975322;28;20046;-76
2021/11/07 12:27:52;;;;;;;107.22;54.42;;;;;;;;;;4987502;28;20031;-76
2021/11/07 12:30:24;;;;;;;89.43;48.15;;;;;;;;;;4987811;28;20030;-76
2021/11/07 12:33:06;;;;;;;85.03;47.15;;;;;;;;;;4989247;28;20054;-78
2021/11/07 12:35:43;;;;;;;89.32;49.75;;;;;;;;;;4991997;28;20019;-78
2021/11/07 12:41:12;;;;;;;100.75;50.97;;;;;;;;;;4988382;28;20070;-75
2021/11/07 12:43:42;;;;;;;97.72;51.35;;;;;;;;;;5000045;28;20046;-77
2021/11/07 12:46:30;;;;;;;100.03;50.03;;;;;;;;;;4996035;28;20062;-77
2021/11/07 12:49:00;;;;;;;104.00;49.88;;;;;;;;;;5002239;28;20011;-78
2021/11/07 12:51:26;;;;;;;110.93;57.58;;;;;;;;;;4996303;28;20034;-77
2021/11/07 12:53:55;;;;;;;118.47;56.13;;;;;;;;;;4989256;28;20059;-78
2021/11/07 12:56:36;;;;;;;103.97;56.65;;;;;;;;;;4982941;28;20007;-77
2021/11/07 12:59:06;;;;;;;110.57;59.78;;;;;;;;;;4994432;28;20026;-77
2021/11/07 13:01:54;;;;;;;98.72;52.17;;;;;;;;;;4991939;28;20037;-79
2021/11/07 13:04:22;;;;;;;102.32;54.33;;;;;;;;;;4971511;28;20023;-75
2021/11/07 13:06:51;;;;;;;101.40;58.75;;;;;;;;;;4962470;28;20070;-78
2021/11/07 13:09:20;;;;;;;90.00;51.28;;;;;;;;;;4985853;28;20161;-79
2021/11/07 13:11:50;;;;;;;104.00;57.78;;;;;;;;;;4989759;28;20015;-77
2021/11/07 13:20:12;;;;;;;74.70;44.85;;;;;;;;;;4981494;28;20185;-76
2021/11/07 13:23:02;;;;;;;87.95;50.60;;;;;;;;;;4980205;28;20030;-77
2021/11/07 13:28:47;;;;;;;61.22;40.95;;;;;;;;;;5306453;23;20063;-78
2021/11/07 13:31:19;;;;;;;56.60;37.90;;;;;;;;;;4973728;29;20035;-75
2021/11/07 13:33:45;;;;;;;45.95;31.92;;;;;;;;;;4972734;28;20039;-76
2021/11/07 13:36:13;;;;;;;50.45;33.15;;;;;;;;;;4978785;28;20047;-76
2021/11/07 13:38:52;;;;;;;99.32;69.28;;;;;;;;;;4985390;28;20011;-76
2021/11/07 13:41:20;;;;;;;58.65;43.75;;;;;;;;;;4975858;29;20033;-78
2021/11/07 13:43:51;;;;;;;46.97;33.88;;;;;;;;;;4975191;28;20019;-80
2021/11/07 13:46:18;;;;;;;49.20;35.80;;;;;;;;;;4984026;28;20007;-78
2021/11/07 13:48:44;;;;;;;50.08;35.83;;;;;;;;;;4977428;28;20033;-77
2021/11/07 13:51:12;;;;;;;47.40;34.00;;;;;;;;;;4960659;29;20023;-77
2021/11/07 13:53:39;;;;;;;53.08;36.78;;;;;;;;;;4954832;29;20031;-78
2021/11/07 13:56:13;;;;;;;55.92;39.92;;;;;;;;;;4960149;29;20107;-77
2021/11/07 13:58:41;;;;;;;56.45;38.60;;;;;;;;;;4939068;29;20039;-78
2021/11/07 14:01:09;;;;;;;52.10;36.63;;;;;;;;;;4960614;29;20432;-77
2021/11/07 14:03:35;;;;;;;63.47;44.95;;;;;;;;;;4974810;28;20027;-78
2021/11/07 14:06:07;;;;;;;49.55;36.53;;;;;;;;;;4979379;28;20035;-77
2021/11/07 14:08:41;;;;;;;50.13;35.78;;;;;;;;;;4979066;28;20019;-76
2021/11/07 14:11:07;;;;;;;52.95;36.05;;;;;;;;;;4977669;29;20084;-78
2021/11/07 14:13:39;;;;;;;52.40;37.60;;;;;;;;;;4961889;29;20046;-76
2021/11/07 14:16:06;;;;;;;52.33;37.38;;;;;;;;;;4981880;28;20011;-77
2021/11/07 14:18:32;;;;;;;57.60;39.15;;;;;;;;;;4964634;29;20031;-76
2021/11/07 14:21:04;;;;;;;59.17;40.33;;;;;;;;;;4975547;29;20034;-78
2021/11/07 14:23:55;;;;;;;59.47;41.47;;;;;;;;;;4966672;29;20058;-77
2021/11/07 14:26:32;;;;;;;64.05;43.50;;;;;;;;;;4967397;29;20043;-78
2021/11/07 14:31:34;;;;;;;64.47;42.72;;;;;;;;;;4975504;28;20047;-79
2021/11/07 14:42:07;;;;;;;68.65;45.33;;;;;;;;;;4978782;28;20030;-79
2021/11/07 14:44:42;;;;;;;72.85;46.45;;;;;;;;;;4984183;28;20014;-77
2021/11/07 14:47:14;;;;;;;88.97;51.08;;;;;;;;;;4977570;29;20037;-78
2021/11/07 14:49:57;;;;;;;81.70;50.85;;;;;;;;;;4955203;29;20019;-78
2021/11/07 14:55:06;;;;;;;84.90;50.58;;;;;;;;;;4979098;29;20087;-79
2021/11/07 14:58:04;;;;;;;83.15;51.20;;;;;;;;;;4985793;28;20061;-79
2021/11/07 15:00:33;;;;;;;92.10;53.92;;;;;;;;;;4961509;28;20083;-78
2021/11/07 15:03:01;;;;;;;89.70;51.05;;;;;;;;;;4961182;29;20043;-77
2021/11/07 15:05:42;;;;;;;102.85;55.03;;;;;;;;;;4958891;29;20030;-78
2021/11/07 15:08:21;;;;;;;132.25;71.13;;;;;;;;;;4974623;29;20046;-79
2021/11/07 15:11:06;;;;;;;115.40;59.80;;;;;;;;;;4983291;28;20007;-77
2021/11/07 15:21:30;;;;;;;115.88;63.65;;;;;;;;;;4974238;29;20036;-77
2021/11/07 15:23:58;;;;;;;97.47;57.65;;;;;;;;;;4973009;29;20030;-79
2021/11/07 15:26:32;;;;;;;82.22;47.45;;;;;;;;;;4965660;29;20027;-79
2021/11/07 15:29:01;;;;;;;74.60;45.72;;;;;;;;;;4984618;28;20055;-79
2021/11/07 15:31:52;;;;;;;77.90;46.05;;;;;;;;;;4940537;29;20025;-79
2021/11/07 15:34:34;;;;;;;87.28;50.60;;;;;;;;;;4934261;29;20047;-77
2021/11/07 15:37:02;;;;;;;93.72;51.97;;;;;;;;;;4924779;29;20031;-78
2021/11/07 15:39:29;;;;;;;78.68;49.40;;;;;;;;;;4926751;29;20087;-78
2021/11/07 15:42:03;;;;;;;81.10;50.33;;;;;;;;;;4936512;29;20043;-79
2021/11/07 15:44:29;;;;;;;;;;;;;;;;;;4938045;29;20016;-76
2021/11/07 15:46:58;;;;;;;81.13;48.47;;;;;;;;;;4947054;29;19955;-76
2021/11/07 15:49:24;;;;;;;79.60;49.03;;;;;;;;;;4933932;29;20075;-77
2021/11/07 15:52:04;;;;;;;82.03;50.15;;;;;;;;;;4918097;29;20028;-77
2021/11/07 15:54:33;;;;;;;89.47;52.83;;;;;;;;;;4937793;29;20118;-77
2021/11/07 16:05:13;;;;;;;88.65;50.70;;;;;;;;;;4977465;28;20035;-81
2021/11/07 16:07:56;;;;;;;94.75;53.70;;;;;;;;;;4969126;28;20023;-78
2021/11/07 16:12:57;;;;;;;91.22;53.70;;;;;;;;;;4976664;28;20055;-78
2021/11/07 16:15:39;;;;;;;90.63;53.60;;;;;;;;;;5055232;23;20051;-80
2021/11/07 16:18:05;;;;;;;89.75;53.20;;;;;;;;;;4975567;29;20027;-79
2021/11/07 16:20:31;;;;;;;94.82;53.88;;;;;;;;;;4959115;28;20035;-79
2021/11/07 16:23:00;;;;;;;101.22;56.65;;;;;;;;;;4954306;28;20039;-79
2021/11/07 16:25:27;;;;;;;98.85;56.63;;;;;;;;;;4971392;28;20042;-78
2021/11/07 16:27:58;;;;;;;103.30;53.85;;;;;;;;;;4968248;28;20393;-78
2021/11/07 16:30:24;;;;;;;94.93;52.47;;;;;;;;;;4975219;28;20462;-79
2021/11/07 16:36:09;;;;;;;99.57;57.33;;;;;;;;;;4920062;29;20040;-78
2021/11/07 16:38:46;;;;;;;105.90;55.88;;;;;;;;;;4896063;29;20013;-79
2021/11/07 16:43:52;;;;;;;104.53;55.65;;;;;;;;;;4892206;29;20116;-77
2021/11/07 16:46:22;;;;;;;113.35;57.85;;;;;;;;;;4895238;29;20032;-76
2021/11/07 16:48:49;;;;;;;113.28;56.45;;;;;;;;;;4894084;29;20044;-78
2021/11/07 16:51:32;;;;;;;108.63;56.90;;;;;;;;;;4898388;29;20045;-77
2021/11/07 16:54:02;;;;;;;121.32;59.67;;;;;;;;;;4893451;29;20029;-78
2021/11/07 16:56:31;;;;;;;126.95;59.58;;;;;;;;;;4889986;29;20033;-79
2021/11/07 17:04:05;;;;;;;549.22;294.92;;;;;;;;;;4903355;29;20043;-77
2021/11/07 17:06:38;;;;;;;214.35;98.32;;;;;;;;;;4891547;29;20057;-78
2021/11/07 17:11:56;;;;;;;138.18;60.88;;;;;;;;;;4952706;29;20050;-79
2021/11/07 17:14:23;;;;;;;143.30;62.47;;;;;;;;;;4948819;29;20044;-78
2021/11/07 17:17:03;;;;;;;150.27;56.17;;;;;;;;;;4929827;29;20115;-77
2021/11/07 17:19:34;;;;;;;178.18;62.88;;;;;;;;;;4951157;29;20031;-76
2021/11/07 17:22:14;;;;;;;167.23;60.50;;;;;;;;;;4932653;29;20252;-78
2021/11/07 17:24:51;;;;;;;177.02;60.65;;;;;;;;;;4962549;29;20077;-78
2021/11/07 17:27:28;;;;;;;180.85;59.55;;;;;;;;;;4951959;29;20111;-77
2021/11/07 17:29:59;;;;;;;201.48;64.10;;;;;;;;;;4950094;29;20023;-79
2021/11/07 17:32:30;;;;;;;209.43;66.85;;;;;;;;;;4955619;29;20079;-78